createdAt,value
2018-12-02T00:00:33.687Z,6.70
2018-12-02T00:03:03.668Z,6.70
2018-12-02T00:05:31.804Z,6.70
2018-12-02T00:07:59.918Z,6.70
2018-12-02T00:10:28.010Z,6.80
2018-12-02T00:12:56.116Z,6.70
2018-12-02T00:15:27.302Z,6.70
2018-12-02T00:18:00.393Z,6.80
2018-12-02T00:20:28.480Z,6.80
2018-12-02T00:22:56.576Z,6.80
2018-12-02T00:25:24.671Z,6.80
2018-12-02T00:27:54.936Z,6.80
2018-12-02T00:30:28.210Z,6.80
2018-12-02T00:32:56.316Z,6.80
2018-12-02T00:35:24.445Z,6.80
2018-12-02T00:38:00.460Z,6.80
2018-12-02T00:40:28.544Z,6.90
2018-12-02T00:42:58.432Z,6.80
2018-12-02T00:45:27.700Z,6.90
2018-12-02T00:47:55.828Z,6.90
2018-12-02T00:50:23.969Z,6.90
2018-12-02T00:52:54.930Z,6.80
2018-12-02T00:55:26.239Z,6.90
2018-12-02T00:57:54.361Z,6.90
2018-12-02T01:00:22.456Z,6.90
2018-12-02T01:02:51.025Z,6.80
2018-12-02T01:05:20.009Z,6.80
2018-12-02T01:07:48.084Z,6.80
2018-12-02T01:10:19.168Z,6.70
2018-12-02T01:12:48.150Z,6.80
2018-12-02T01:15:17.460Z,6.80
2018-12-02T01:17:45.552Z,6.80
2018-12-02T01:20:15.562Z,6.80
2018-12-02T01:22:43.857Z,6.80
2018-12-02T01:25:12.592Z,6.80
2018-12-02T01:27:40.801Z,6.80
2018-12-02T01:30:13.980Z,6.80
2018-12-02T01:32:42.070Z,6.70
2018-12-02T01:35:10.637Z,6.80
2018-12-02T01:37:38.748Z,6.70
2018-12-02T01:40:08.613Z,6.80
2018-12-02T01:42:36.725Z,6.70
2018-12-02T01:45:07.315Z,6.70
2018-12-02T01:47:35.448Z,6.70
2018-12-02T01:50:04.073Z,6.70
2018-12-02T01:52:32.164Z,6.70
2018-12-02T01:55:00.281Z,6.70
2018-12-02T01:57:28.368Z,6.70
2018-12-02T01:59:56.453Z,6.70
2018-12-02T02:02:24.562Z,6.70
2018-12-02T02:04:52.656Z,6.70
2018-12-02T02:07:20.758Z,6.70
2018-12-02T02:09:48.865Z,6.70
2018-12-02T02:12:16.964Z,6.70
2018-12-02T02:14:45.073Z,6.70
2018-12-02T02:17:13.156Z,6.70
2018-12-02T02:19:41.241Z,6.70
2018-12-02T02:22:09.346Z,6.70
2018-12-02T02:24:37.432Z,6.70
2018-12-02T02:27:06.011Z,6.80
2018-12-02T02:29:34.105Z,6.70
2018-12-02T02:32:02.494Z,6.80
2018-12-02T02:34:30.602Z,6.80
2018-12-02T02:36:58.725Z,6.80
2018-12-02T02:39:26.813Z,6.80
2018-12-02T02:41:55.017Z,6.80
2018-12-02T02:44:23.113Z,6.80
2018-12-02T02:46:51.208Z,6.80
2018-12-02T02:49:19.302Z,6.80
2018-12-02T02:51:47.405Z,6.80
2018-12-02T02:54:15.499Z,6.80
2018-12-02T02:56:43.600Z,6.80
2018-12-02T02:59:11.694Z,6.80
2018-12-02T03:01:39.793Z,6.80
2018-12-02T03:04:07.897Z,6.80
2018-12-02T03:06:35.999Z,6.80
2018-12-02T03:09:05.842Z,6.80
2018-12-02T03:11:33.937Z,6.80
2018-12-02T03:14:02.054Z,6.80
2018-12-02T03:16:30.164Z,6.80
2018-12-02T03:18:58.265Z,6.80
2018-12-02T03:21:26.376Z,6.80
2018-12-02T03:23:54.463Z,6.80
2018-12-02T03:26:22.569Z,6.80
2018-12-02T03:28:50.684Z,6.80
2018-12-02T03:31:18.790Z,6.80
2018-12-02T03:33:46.894Z,6.80
2018-12-02T03:36:14.992Z,6.80
2018-12-02T03:38:43.102Z,6.80
2018-12-02T03:41:11.271Z,6.80
2018-12-02T03:43:39.443Z,6.80
2018-12-02T03:46:07.569Z,6.80
2018-12-02T03:48:35.655Z,6.80
2018-12-02T03:51:03.755Z,6.80
2018-12-02T03:53:31.857Z,6.80
2018-12-02T03:55:59.978Z,6.80
2018-12-02T03:58:28.085Z,6.80
2018-12-02T04:00:56.184Z,6.80
2018-12-02T04:03:24.309Z,6.80
2018-12-02T04:05:52.409Z,6.80
2018-12-02T04:08:20.513Z,6.80
2018-12-02T04:10:48.601Z,6.80
2018-12-02T04:13:16.768Z,6.80
2018-12-02T04:15:44.861Z,6.80
2018-12-02T04:18:12.949Z,6.80
2018-12-02T04:20:41.034Z,6.80
2018-12-02T04:23:09.143Z,6.80
2018-12-02T04:25:37.225Z,6.80
2018-12-02T04:28:06.139Z,6.80
2018-12-02T04:30:34.237Z,6.80
2018-12-02T04:33:02.337Z,6.80
2018-12-02T04:35:30.434Z,6.80
2018-12-02T04:37:58.529Z,6.80
2018-12-02T04:40:26.613Z,6.80
2018-12-02T04:42:54.729Z,6.80
2018-12-02T04:45:22.864Z,6.80
2018-12-02T04:47:50.968Z,6.80
2018-12-02T04:50:21.919Z,6.80
2018-12-02T04:52:50.547Z,6.80
2018-12-02T04:55:18.621Z,6.80
2018-12-02T04:57:46.705Z,6.80
2018-12-02T05:00:16.340Z,6.90
2018-12-02T05:02:45.588Z,6.90
2018-12-02T05:05:15.816Z,6.90
2018-12-02T05:07:44.051Z,6.90
2018-12-02T05:10:13.236Z,6.90
2018-12-02T05:12:41.576Z,6.90
2018-12-02T05:15:14.574Z,6.90
2018-12-02T05:17:42.692Z,6.90
2018-12-02T05:20:15.714Z,6.90
2018-12-02T05:22:43.811Z,6.90
2018-12-02T05:25:17.418Z,6.90
2018-12-02T05:27:41.062Z,6.90
2018-12-02T05:30:11.941Z,6.90
2018-12-02T05:32:40.264Z,6.90
2018-12-02T05:35:09.348Z,6.90
2018-12-02T05:37:37.448Z,6.90
2018-12-02T05:40:09.930Z,6.90
2018-12-02T05:42:38.104Z,6.90
2018-12-02T05:45:08.602Z,6.90
2018-12-02T05:47:36.729Z,6.90
2018-12-02T05:50:23.831Z,6.90
2018-12-02T05:52:54.017Z,6.90
2018-12-02T05:55:23.340Z,6.90
2018-12-02T05:57:51.436Z,7.00
2018-12-02T06:00:20.631Z,6.90
2018-12-02T06:02:48.721Z,7.00
2018-12-02T06:05:16.810Z,7.00
2018-12-02T06:07:44.929Z,7.00
2018-12-02T06:10:16.868Z,6.90
2018-12-02T06:12:45.014Z,7.00
2018-12-02T06:15:14.870Z,7.00
2018-12-02T06:17:43.101Z,7.00
2018-12-02T06:20:14.370Z,7.00
2018-12-02T06:22:42.857Z,7.00
2018-12-02T06:25:10.973Z,7.10
2018-12-02T06:27:39.188Z,7.00
2018-12-02T06:30:11.753Z,7.10
2018-12-02T06:32:39.848Z,7.10
2018-12-02T06:35:09.536Z,7.10
2018-12-02T06:37:37.648Z,7.10
2018-12-02T06:40:09.498Z,7.10
2018-12-02T06:42:37.613Z,7.10
2018-12-02T06:45:06.341Z,7.10
2018-12-02T06:47:34.546Z,7.20
2018-12-02T06:50:02.662Z,7.30
2018-12-02T06:52:30.761Z,7.30
2018-12-02T06:54:58.893Z,7.30
2018-12-02T06:57:26.997Z,7.40
2018-12-02T07:00:03.081Z,7.40
2018-12-02T07:02:40.568Z,7.40
2018-12-02T07:05:08.938Z,7.40
2018-12-02T07:07:37.145Z,7.40
2018-12-02T07:10:05.856Z,7.40
2018-12-02T07:12:33.975Z,7.50
2018-12-02T07:15:02.032Z,7.40
2018-12-02T07:17:30.160Z,7.50
2018-12-02T07:19:58.302Z,7.50
2018-12-02T07:22:27.353Z,7.50
2018-12-02T07:24:55.509Z,7.50
2018-12-02T07:27:23.596Z,7.60
2018-12-02T07:29:51.701Z,7.60
2018-12-02T07:32:19.793Z,7.60
2018-12-02T07:34:47.904Z,7.60
2018-12-02T07:37:18.656Z,7.60
2018-12-02T07:40:26.128Z,7.60
2018-12-02T07:42:54.226Z,7.60
2018-12-02T07:45:22.324Z,7.60
2018-12-02T07:47:50.412Z,7.70
2018-12-02T07:50:18.509Z,7.70
2018-12-02T07:52:46.592Z,7.70
2018-12-02T07:55:14.756Z,7.70
2018-12-02T07:57:42.846Z,7.70
2018-12-02T08:00:12.881Z,7.80
2018-12-02T08:02:40.973Z,7.80
2018-12-02T08:05:12.130Z,7.80
2018-12-02T08:07:40.568Z,7.80
2018-12-02T08:10:18.163Z,7.80
2018-12-02T08:12:46.386Z,7.90
2018-12-02T08:15:15.632Z,7.80
2018-12-02T08:17:43.721Z,7.80
2018-12-02T08:20:13.935Z,7.80
2018-12-02T08:22:42.072Z,7.80
2018-12-02T08:25:11.328Z,7.90
2018-12-02T08:27:39.418Z,7.90
2018-12-02T08:30:20.588Z,8.00
2018-12-02T08:32:48.684Z,8.00
2018-12-02T08:35:17.829Z,8.00
2018-12-02T08:37:48.232Z,8.00
2018-12-02T08:40:16.340Z,8.00
2018-12-02T08:42:44.429Z,8.00
2018-12-02T08:45:13.614Z,8.00
2018-12-02T08:47:42.376Z,8.00
2018-12-02T08:50:12.580Z,8.10
2018-12-02T08:52:40.692Z,8.10
2018-12-02T08:55:10.069Z,8.10
2018-12-02T08:57:38.201Z,8.20
2018-12-02T09:00:10.814Z,8.20
2018-12-02T09:02:38.912Z,8.20
2018-12-02T09:05:08.941Z,8.20
2018-12-02T09:07:37.040Z,8.30
2018-12-02T09:10:10.869Z,8.30
2018-12-02T09:12:38.976Z,8.30
2018-12-02T09:15:08.669Z,8.30
2018-12-02T09:17:36.805Z,8.30
2018-12-02T09:20:40.643Z,8.30
2018-12-02T09:23:10.053Z,8.30
2018-12-02T09:25:38.168Z,8.30
2018-12-02T09:28:07.344Z,8.30
2018-12-02T09:30:36.408Z,8.40
2018-12-02T09:33:04.540Z,8.40
2018-12-02T09:35:32.648Z,8.40
2018-12-02T09:38:00.805Z,8.40
2018-12-02T09:40:28.893Z,8.40
2018-12-02T09:42:57.019Z,8.40
2018-12-02T09:45:26.981Z,8.40
2018-12-02T09:47:56.395Z,8.40
2018-12-02T09:50:24.477Z,8.40
2018-12-02T09:52:52.577Z,8.40
2018-12-02T09:55:28.172Z,8.50
2018-12-02T09:57:56.871Z,8.50
2018-12-02T10:00:24.956Z,8.50
2018-12-02T10:02:53.130Z,8.50
2018-12-02T10:05:21.227Z,8.50
2018-12-02T10:07:49.307Z,8.60
2018-12-02T10:10:22.373Z,8.60
2018-12-02T10:12:49.076Z,8.60
2018-12-02T10:15:17.169Z,8.70
2018-12-02T10:17:45.264Z,8.60
2018-12-02T10:20:14.321Z,8.70
2018-12-02T10:22:42.564Z,8.70
2018-12-02T10:25:11.913Z,8.70
2018-12-02T10:27:40.006Z,8.70
2018-12-02T10:30:13.995Z,8.70
2018-12-02T10:32:42.099Z,8.70
2018-12-02T10:35:10.260Z,8.80
2018-12-02T10:37:38.417Z,8.80
2018-12-02T10:40:11.992Z,8.80
2018-12-02T10:42:40.132Z,8.80
2018-12-02T10:45:11.232Z,8.80
2018-12-02T10:47:39.381Z,8.80
2018-12-02T10:50:25.577Z,8.90
2018-12-02T10:52:54.864Z,8.90
2018-12-02T10:55:30.013Z,8.90
2018-12-02T10:57:58.112Z,8.90
2018-12-02T11:00:31.693Z,8.90
2018-12-02T11:02:59.796Z,8.90
2018-12-02T11:05:27.929Z,9.00
2018-12-02T11:07:56.060Z,9.00
2018-12-02T11:10:24.200Z,9.00
2018-12-02T11:12:52.298Z,9.00
2018-12-02T11:15:20.396Z,9.00
2018-12-02T11:17:48.545Z,9.10
2018-12-02T11:20:16.864Z,9.10
2018-12-02T11:22:44.948Z,9.10
2018-12-02T11:25:14.038Z,9.20
2018-12-02T11:27:42.167Z,9.20
2018-12-02T11:30:13.351Z,9.30
2018-12-02T11:32:41.725Z,9.30
2018-12-02T11:35:12.769Z,9.40
2018-12-02T11:37:40.913Z,9.40
2018-12-02T11:40:17.241Z,9.40
2018-12-02T11:42:45.585Z,9.40
2018-12-02T11:45:14.477Z,9.40
2018-12-02T11:47:44.373Z,9.40
2018-12-02T11:50:17.335Z,9.40
2018-12-02T11:52:45.445Z,9.50
2018-12-02T11:55:14.550Z,9.50
2018-12-02T11:57:42.624Z,9.50
2018-12-02T12:00:13.877Z,9.50
2018-12-02T12:02:42.020Z,9.60
2018-12-02T12:05:10.828Z,9.60
2018-12-02T12:07:39.397Z,9.70
2018-12-02T12:10:13.508Z,9.70
2018-12-02T12:12:41.628Z,9.70
2018-12-02T12:15:11.924Z,9.70
2018-12-02T12:17:40.017Z,9.70
2018-12-02T12:20:25.625Z,9.80
2018-12-02T12:22:53.792Z,9.80
2018-12-02T12:25:21.880Z,9.80
2018-12-02T12:27:50.803Z,9.90
2018-12-02T12:30:23.168Z,9.90
2018-12-02T12:32:51.375Z,9.90
2018-12-02T12:35:19.632Z,9.90
2018-12-02T12:37:47.728Z,9.90
2018-12-02T12:40:17.705Z,9.90
2018-12-02T12:42:48.565Z,9.90
2018-12-02T12:45:16.672Z,9.90
2018-12-02T12:47:44.772Z,9.90
2018-12-02T12:50:13.984Z,9.90
2018-12-02T12:52:42.099Z,10.00
2018-12-02T12:55:16.396Z,10.10
2018-12-02T12:57:44.749Z,10.10
2018-12-02T13:00:20.876Z,10.20
2018-12-02T13:02:49.037Z,10.20
2018-12-02T13:05:18.381Z,10.20
2018-12-02T13:07:46.520Z,10.20
2018-12-02T13:10:15.513Z,10.30
2018-12-02T13:12:43.640Z,10.30
2018-12-02T13:15:13.736Z,10.30
2018-12-02T13:17:42.949Z,10.30
2018-12-02T13:20:12.447Z,10.30
2018-12-02T13:22:40.640Z,10.30
2018-12-02T13:25:10.220Z,10.30
2018-12-02T13:27:38.324Z,10.30
2018-12-02T13:30:11.893Z,10.40
2018-12-02T13:32:39.988Z,10.40
2018-12-02T13:35:08.559Z,10.40
2018-12-02T13:37:36.718Z,10.40
2018-12-02T13:40:10.013Z,10.40
2018-12-02T13:42:38.201Z,10.40
2018-12-02T13:45:12.245Z,10.40
2018-12-02T13:47:40.361Z,10.40
2018-12-02T13:50:12.855Z,10.40
2018-12-02T13:52:40.946Z,10.40
2018-12-02T13:55:10.512Z,10.40
2018-12-02T13:57:38.760Z,10.40
2018-12-02T14:00:17.146Z,10.40
2018-12-02T14:02:50.498Z,10.40
2018-12-02T14:05:18.634Z,10.50
2018-12-02T14:07:46.844Z,10.40
2018-12-02T14:10:15.500Z,10.50
2018-12-02T14:12:47.144Z,10.50
2018-12-02T14:15:23.702Z,10.50
2018-12-02T14:17:54.590Z,10.60
2018-12-02T14:20:22.751Z,10.60
2018-12-02T14:22:50.918Z,10.60
2018-12-02T14:25:19.084Z,10.60
2018-12-02T14:27:48.739Z,10.60
2018-12-02T14:30:18.438Z,10.60
2018-12-02T14:32:46.611Z,10.60
2018-12-02T14:35:14.773Z,10.60
2018-12-02T14:37:43.042Z,10.60
2018-12-02T14:40:12.595Z,10.70
2018-12-02T14:42:41.863Z,10.70
2018-12-02T14:45:11.705Z,10.70
2018-12-02T14:47:39.934Z,10.70
2018-12-02T14:50:10.812Z,10.70
2018-12-02T14:52:39.084Z,10.70
2018-12-02T14:55:09.126Z,10.80
2018-12-02T14:57:37.404Z,10.80
2018-12-02T15:00:10.114Z,10.80
2018-12-02T15:02:38.267Z,10.80
2018-12-02T15:05:07.439Z,10.90
2018-12-02T15:07:35.617Z,10.80
2018-12-02T15:10:04.052Z,10.90
2018-12-02T15:12:32.202Z,10.90
2018-12-02T15:15:00.352Z,10.90
2018-12-02T15:17:28.515Z,10.90
2018-12-02T15:19:56.703Z,10.90
2018-12-02T15:22:24.862Z,10.90
2018-12-02T15:24:53.034Z,10.90
2018-12-02T15:27:21.207Z,10.90
2018-12-02T15:29:49.383Z,10.90
2018-12-02T15:32:17.639Z,10.90
2018-12-02T15:34:45.808Z,10.90
2018-12-02T15:37:13.959Z,10.90
2018-12-02T15:39:42.170Z,11.00
2018-12-02T15:42:10.327Z,10.90
2018-12-02T15:44:38.506Z,10.90
2018-12-02T15:47:06.678Z,11.00
2018-12-02T15:49:34.923Z,10.90
2018-12-02T15:52:03.103Z,10.90
2018-12-02T15:54:31.320Z,10.90
2018-12-02T15:56:59.503Z,10.90
2018-12-02T15:59:27.680Z,10.90
2018-12-02T16:01:55.883Z,10.90
2018-12-02T16:04:24.092Z,11.00
2018-12-02T16:06:52.250Z,11.00
2018-12-02T16:09:20.491Z,11.00
2018-12-02T16:11:48.666Z,11.00
2018-12-02T16:14:16.884Z,11.00
2018-12-02T16:16:45.081Z,11.00
2018-12-02T16:19:13.280Z,11.00
2018-12-02T16:21:41.526Z,11.10
2018-12-02T16:24:09.991Z,11.10
2018-12-02T16:26:38.296Z,11.10
2018-12-02T16:29:06.616Z,11.10
2018-12-02T16:31:35.074Z,11.10
2018-12-02T16:34:03.508Z,11.10
2018-12-02T16:36:31.796Z,11.10
2018-12-02T16:39:00.041Z,11.10
2018-12-02T16:41:28.244Z,11.10
2018-12-02T16:43:56.598Z,11.10
2018-12-02T16:46:24.959Z,11.10
2018-12-02T16:48:53.270Z,11.10
2018-12-02T16:51:21.515Z,11.10
2018-12-02T16:53:49.758Z,11.20
2018-12-02T16:56:18.208Z,11.10
2018-12-02T16:59:01.147Z,11.10
2018-12-02T17:01:31.218Z,11.10
2018-12-02T17:04:00.831Z,11.10
2018-12-02T17:06:29.306Z,11.10
2018-12-02T17:08:58.456Z,11.20
2018-12-02T17:11:26.770Z,11.10
2018-12-02T17:13:54.985Z,11.10
2018-12-02T17:16:23.168Z,11.10
2018-12-02T17:18:51.390Z,11.10
2018-12-02T17:21:19.601Z,11.10
2018-12-02T17:23:47.798Z,11.20
2018-12-02T17:26:16.448Z,11.20
2018-12-02T17:28:44.763Z,11.20
2018-12-02T17:31:15.947Z,11.10
2018-12-02T17:33:44.252Z,11.00
2018-12-02T17:36:12.835Z,11.10
2018-12-02T17:38:41.201Z,11.00
2018-12-02T17:41:11.404Z,11.10
2018-12-02T17:43:39.885Z,11.10
2018-12-02T17:46:08.843Z,11.10
2018-12-02T17:48:37.143Z,11.10
2018-12-02T17:51:06.480Z,11.10
2018-12-02T17:53:34.684Z,11.10
2018-12-02T17:56:02.997Z,11.10
2018-12-02T17:58:31.213Z,11.10
2018-12-02T18:00:59.398Z,11.00
2018-12-02T18:03:29.696Z,11.10
2018-12-02T18:05:57.874Z,11.10
2018-12-02T18:08:26.056Z,11.10
2018-12-02T18:10:54.240Z,11.10
2018-12-02T18:13:22.439Z,11.00
2018-12-02T18:15:50.627Z,11.10
2018-12-02T18:18:18.826Z,11.10
2018-12-02T18:20:46.988Z,11.10
2018-12-02T18:23:15.165Z,11.10
2018-12-02T18:25:43.338Z,11.10
2018-12-02T18:28:11.512Z,11.10
2018-12-02T18:30:39.697Z,11.10
2018-12-02T18:33:07.892Z,11.00
2018-12-02T18:35:55.115Z,11.10
2018-12-02T18:38:24.655Z,11.00
2018-12-02T18:40:58.919Z,11.10
2018-12-02T18:43:27.235Z,11.10
2018-12-02T18:45:55.487Z,11.10
2018-12-02T18:48:23.634Z,11.10
2018-12-02T18:50:51.852Z,11.10
2018-12-02T18:53:20.003Z,11.10
2018-12-02T18:55:48.159Z,11.10
2018-12-02T18:58:16.306Z,11.10
2018-12-02T19:00:48.055Z,11.10
2018-12-02T19:03:17.811Z,11.10
2018-12-02T19:05:46.775Z,11.00
2018-12-02T19:08:14.990Z,11.10
2018-12-02T19:10:43.939Z,11.00
2018-12-02T19:13:12.362Z,11.10
2018-12-02T19:15:40.540Z,11.00
2018-12-02T19:18:08.683Z,11.10
2018-12-02T19:20:36.832Z,11.10
2018-12-02T19:23:07.988Z,11.10
2018-12-02T19:25:36.147Z,11.10
2018-12-02T19:28:04.291Z,11.10
2018-12-02T19:30:33.150Z,11.10
2018-12-02T19:33:00.624Z,11.10
2018-12-02T19:35:33.358Z,11.10
2018-12-02T19:38:20.797Z,11.10
2018-12-02T19:40:48.961Z,11.10
2018-12-02T19:43:17.163Z,11.10
2018-12-02T19:45:46.476Z,11.10
2018-12-02T19:48:14.642Z,11.00
2018-12-02T19:50:42.803Z,11.00
2018-12-02T19:53:10.948Z,11.00
2018-12-02T19:55:39.108Z,11.00
2018-12-02T19:58:08.867Z,11.00
2018-12-02T20:00:44.317Z,11.00
2018-12-02T20:03:14.523Z,11.00
2018-12-02T20:05:43.310Z,10.90
2018-12-02T20:08:12.482Z,10.90
2018-12-02T20:10:42.207Z,10.90
2018-12-02T20:13:12.298Z,10.90
2018-12-02T20:15:45.658Z,10.90
2018-12-02T20:18:13.827Z,10.90
2018-12-02T20:20:47.507Z,10.90
2018-12-02T20:23:15.695Z,10.90
2018-12-02T20:25:43.904Z,10.80
2018-12-02T20:28:13.130Z,10.80
2018-12-02T20:30:41.320Z,10.80
2018-12-02T20:33:09.420Z,10.80
2018-12-02T20:35:37.552Z,10.80
2018-12-02T20:38:05.992Z,10.80
2018-12-02T20:40:34.141Z,10.80
2018-12-02T20:43:02.373Z,10.80
2018-12-02T20:45:30.550Z,10.80
2018-12-02T20:47:58.727Z,10.80
2018-12-02T20:50:26.924Z,10.80
2018-12-02T20:52:55.097Z,10.80
2018-12-02T20:55:24.578Z,10.80
2018-12-02T20:57:54.551Z,10.80
2018-12-02T21:00:22.729Z,10.80
2018-12-02T21:02:53.635Z,10.80
2018-12-02T21:05:29.469Z,10.80
2018-12-02T21:07:57.634Z,10.80
2018-12-02T21:10:25.816Z,10.80
2018-12-02T21:12:53.964Z,10.80
2018-12-02T21:15:22.191Z,10.80
2018-12-02T21:17:50.343Z,10.80
2018-12-02T21:20:18.505Z,10.80
2018-12-02T21:22:46.736Z,10.80
2018-12-02T21:25:17.195Z,10.80
2018-12-02T21:27:45.362Z,10.80
2018-12-02T21:30:17.066Z,10.80
2018-12-02T21:32:44.874Z,10.80
2018-12-02T21:35:13.082Z,10.80
2018-12-02T21:37:41.295Z,10.80
2018-12-02T21:40:11.770Z,10.90
2018-12-02T21:42:39.932Z,10.80
2018-12-02T21:45:10.229Z,10.80
2018-12-02T21:47:39.248Z,10.80
2018-12-02T21:50:11.278Z,10.80
2018-12-02T21:52:39.425Z,10.80
2018-12-02T21:55:08.011Z,10.70
2018-12-02T21:57:36.671Z,10.80
2018-12-02T22:00:15.507Z,10.70
2018-12-02T22:02:43.662Z,10.70
2018-12-02T22:05:11.809Z,10.80
2018-12-02T22:07:39.965Z,10.80
2018-12-02T22:10:14.757Z,10.70
2018-12-02T22:12:42.890Z,10.70
2018-12-02T22:15:11.031Z,10.70
2018-12-02T22:17:39.185Z,10.80
2018-12-02T22:20:11.473Z,10.80
2018-12-02T22:22:39.618Z,10.70
2018-12-02T22:25:09.407Z,10.70
2018-12-02T22:27:37.602Z,10.70
2018-12-02T22:30:08.201Z,10.80
2018-12-02T22:32:36.346Z,10.80
2018-12-02T22:35:06.095Z,10.80
2018-12-02T22:37:34.251Z,10.80
2018-12-02T22:40:02.419Z,10.80
2018-12-02T22:42:30.558Z,10.90
2018-12-02T22:44:58.726Z,10.80
2018-12-02T22:47:26.884Z,10.90
2018-12-02T22:49:55.030Z,10.90
2018-12-02T22:52:23.183Z,10.90
2018-12-02T22:54:51.339Z,10.90
2018-12-02T22:57:19.491Z,10.90
2018-12-02T22:59:47.631Z,10.90
2018-12-02T23:02:17.882Z,10.90
2018-12-02T23:04:46.027Z,10.90
2018-12-02T23:07:14.165Z,10.90
2018-12-02T23:09:42.342Z,10.90
2018-12-02T23:12:10.482Z,10.90
2018-12-02T23:14:38.639Z,11.00
2018-12-02T23:17:16.111Z,11.00
2018-12-02T23:19:44.266Z,10.90
2018-12-02T23:22:12.422Z,10.90
2018-12-02T23:24:40.582Z,11.00
2018-12-02T23:27:08.748Z,11.00
2018-12-02T23:29:36.898Z,11.00
2018-12-02T23:32:05.122Z,11.00
2018-12-02T23:34:33.288Z,11.00
2018-12-02T23:37:01.430Z,11.00
2018-12-02T23:39:29.695Z,11.00
2018-12-02T23:41:57.852Z,11.00
2018-12-02T23:44:26.007Z,11.00
2018-12-02T23:46:54.146Z,11.00
2018-12-02T23:49:22.299Z,11.00
2018-12-02T23:51:50.447Z,11.00
2018-12-02T23:54:18.683Z,10.90
2018-12-02T23:56:46.885Z,10.90
2018-12-02T23:59:15.041Z,11.00
